Nearby METAR Reports

 

CYXU - London Airport, Ontario, Canada
Distance from station: SSE 21km
Updated: 18/07/2018 11:00
Mostly cloudy
Mostly cloudy
 Wind from NNW
Wind: NNW 13 km/h
Temperature: 21°C
Dew Point: 13°C
Humidity: 60%
Barometer: 1019.6 hPa
Clouds: Mostly cloudy
Visibility: 24 km
Cloud details: Partly cloudy 1158 m
Mostly cloudy 7010 m
2018/07/18 15:00 CYXU 181500Z 34007KT 15SM SCT038 BKN230 21/13 A3011 RMK CU4CI1 SLP195 DENSITY ALT 1600FT
CXDI - Delhi Cs (aut), Ontario, Canada
Distance from station: SE 65km
Updated: 18/07/2018 11:00

 Wind from N
Wind: N 9 km/h
Temperature: 22°C
Dew Point: 13°C
Humidity: 57%
2018/07/18 15:00 CXDI 181500Z AUTO 35005KT 22/13 RMK AO1 SLP186 T02210126 52003
 
CYKF - Waterloo Well, Ontario, Canada
Distance from station: ENE 72km
Updated: 18/07/2018 11:00
Few Clouds
Few Clouds
 Wind from N
Wind: N 11 km/h
Temperature: 20°C
Dew Point: 12°C
Humidity: 60%
Barometer: 1019.3 hPa
Clouds: Few Clouds
Visibility: 14 km
Cloud details: Few Clouds 975 m
2018/07/18 15:00 CYKF 181500Z AUTO 36006KT 320V040 9SM FEW032 20/12 A3010 RMK SLP193 DENSITY ALT 1600FT
CWGD - Goderich (autob), Ontario, Canada
Distance from station: NW 76km
Updated: 18/07/2018 11:00

 Wind from NW
Wind: NW 15 km/h
Temperature: 19°C
Dew Point: 14°C
Humidity: 73%
2018/07/18 15:00 CWGD 181500Z AUTO 32008KT 19/14 RMK AO1 SLP198 T01940137 52004
 
CZEL - Elora Rcs, Ontario, Canada
Distance from station: NE 81km
Updated: 18/07/2018 11:00

 Wind from NNE
Wind: NNE 7 km/h
Temperature: 19°C
Dew Point: 10°C
Humidity: 56%
2018/07/18 15:00 CZEL 181500Z AUTO 02004KT 19/10 RMK AO1 SLP196 T01940103 51003